Time;durP1;ratioP1;P1;durP2;ratioP2;P2;SDS_P1;SDS_P2;PMS_P1;PMS_P2;Temp;Humidity;BMP_temperature;BMP_pressure;BME280_temperature;BME280_humidity;BME280_pressure;Samples;Min_cycle;Max_cycle;Signal;HPM_P1;HPM_P2
2023/01/30 00:00:14;;;;;;;37.53;21.73;;;;;;;;;;5023583;28;20203;-84
2023/01/30 00:02:43;;;;;;;38.63;22.57;;;;;;;;;;5023147;28;20204;-85
2023/01/30 00:05:10;;;;;;;39.37;22.83;;;;;;;;;;5024350;28;20193;-83
2023/01/30 00:07:37;;;;;;;41.03;22.40;;;;;;;;;;5025987;28;20200;-83
2023/01/30 00:10:05;;;;;;;40.30;22.57;;;;;;;;;;5021090;28;20258;-84
2023/01/30 00:12:32;;;;;;;39.20;22.53;;;;;;;;;;5026174;28;20223;-84
2023/01/30 00:14:59;;;;;;;40.70;23.23;;;;;;;;;;5024820;28;20200;-83
2023/01/30 00:17:27;;;;;;;42.10;23.17;;;;;;;;;;5025189;28;20224;-85
2023/01/30 00:19:56;;;;;;;39.80;23.10;;;;;;;;;;5025896;28;20198;-84
2023/01/30 00:22:23;;;;;;;39.90;22.97;;;;;;;;;;5023264;28;20418;-84
2023/01/30 00:24:50;;;;;;;43.30;23.07;;;;;;;;;;5020169;28;20219;-85
2023/01/30 00:27:18;;;;;;;38.47;22.03;;;;;;;;;;5019787;28;20291;-85
2023/01/30 00:29:45;;;;;;;38.07;22.60;;;;;;;;;;5021314;28;20207;-84
2023/01/30 00:32:13;;;;;;;41.23;23.17;;;;;;;;;;5018636;28;20228;-83
2023/01/30 00:34:40;;;;;;;37.93;21.87;;;;;;;;;;5006558;28;20219;-85
2023/01/30 00:37:11;;;;;;;42.20;22.97;;;;;;;;;;5025824;28;20208;-84
2023/01/30 00:39:38;;;;;;;36.10;21.93;;;;;;;;;;5025302;28;20224;-85
2023/01/30 00:47:36;;;;;;;37.80;22.90;;;;;;;;;;5025730;28;20199;-84
2023/01/30 00:50:03;;;;;;;37.57;21.60;;;;;;;;;;5024383;28;20223;-85
2023/01/30 00:52:32;;;;;;;40.43;23.10;;;;;;;;;;5025618;28;20227;-83
2023/01/30 00:55:00;;;;;;;35.40;21.33;;;;;;;;;;5043460;28;20211;-83
2023/01/30 00:57:27;;;;;;;38.23;22.50;;;;;;;;;;5025521;28;20275;-84
2023/01/30 00:59:54;;;;;;;37.23;22.13;;;;;;;;;;5022714;28;20204;-84
2023/01/30 01:02:22;;;;;;;42.60;23.97;;;;;;;;;;5023380;28;20204;-84
2023/01/30 01:04:49;;;;;;;35.13;21.67;;;;;;;;;;5025293;28;20192;-84
2023/01/30 01:07:17;;;;;;;40.37;23.77;;;;;;;;;;5025828;28;20287;-83
2023/01/30 01:09:46;;;;;;;37.03;21.73;;;;;;;;;;5027630;28;20212;-83
2023/01/30 01:12:13;;;;;;;39.33;22.83;;;;;;;;;;5027287;28;20224;-84
2023/01/30 01:14:40;;;;;;;38.67;22.23;;;;;;;;;;5029477;28;20212;-83
2023/01/30 01:17:08;;;;;;;39.13;22.43;;;;;;;;;;5010680;28;20224;-83
2023/01/30 01:19:36;;;;;;;35.13;21.73;;;;;;;;;;5013372;28;20208;-84
2023/01/30 01:22:03;;;;;;;42.30;23.60;;;;;;;;;;5022957;28;20188;-83
2023/01/30 01:24:31;;;;;;;37.57;22.63;;;;;;;;;;5003558;28;20200;-83
2023/01/30 01:26:59;;;;;;;31.83;19.87;;;;;;;;;;5022400;28;20208;-84
2023/01/30 01:29:27;;;;;;;40.93;22.43;;;;;;;;;;5024865;28;20271;-83
2023/01/30 01:31:54;;;;;;;37.30;21.23;;;;;;;;;;5027010;28;20249;-83
2023/01/30 01:34:21;;;;;;;39.80;21.97;;;;;;;;;;5006274;28;20199;-84
2023/01/30 01:36:49;;;;;;;43.97;23.80;;;;;;;;;;5027414;28;20207;-84
2023/01/30 01:39:17;;;;;;;37.97;22.97;;;;;;;;;;5007036;28;20200;-85
2023/01/30 01:41:43;;;;;;;45.50;23.27;;;;;;;;;;5025776;28;20204;-85
2023/01/30 01:44:13;;;;;;;41.70;22.60;;;;;;;;;;5023729;28;20271;-84
2023/01/30 01:46:43;;;;;;;45.17;24.10;;;;;;;;;;5027833;28;20227;-83
2023/01/30 01:49:14;;;;;;;43.17;23.80;;;;;;;;;;5045572;28;20208;-83
2023/01/30 01:51:43;;;;;;;45.63;24.20;;;;;;;;;;5028870;28;20238;-86
2023/01/30 01:54:11;;;;;;;46.47;24.57;;;;;;;;;;5019761;28;20196;-83
2023/01/30 01:56:41;;;;;;;46.53;24.27;;;;;;;;;;5018706;28;20193;-83
2023/01/30 01:59:10;;;;;;;36.67;21.57;;;;;;;;;;5016563;28;20226;-83
2023/01/30 02:01:38;;;;;;;40.83;22.63;;;;;;;;;;5025617;28;20208;-84
2023/01/30 02:04:08;;;;;;;39.47;23.20;;;;;;;;;;5024077;28;20231;-83
2023/01/30 02:06:36;;;;;;;40.60;22.60;;;;;;;;;;5027902;28;20188;-83
2023/01/30 02:09:05;;;;;;;43.77;23.07;;;;;;;;;;5027772;28;20204;-84
2023/01/30 02:11:38;;;;;;;40.33;22.70;;;;;;;;;;5024435;28;20207;-83
2023/01/30 02:14:06;;;;;;;42.53;22.87;;;;;;;;;;5023199;28;20196;-84
2023/01/30 02:16:34;;;;;;;46.13;22.90;;;;;;;;;;5025515;28;20235;-85
2023/01/30 02:19:03;;;;;;;41.83;23.53;;;;;;;;;;5025130;28;20208;-84
2023/01/30 02:21:49;;;;;;;43.93;23.60;;;;;;;;;;5027197;28;20196;-83
2023/01/30 02:24:34;;;;;;;42.63;23.83;;;;;;;;;;5023147;28;20214;-82
2023/01/30 02:27:15;;;;;;;41.73;23.30;;;;;;;;;;5018644;28;20202;-82
2023/01/30 02:29:58;;;;;;;46.63;24.83;;;;;;;;;;5027577;28;20219;-82
2023/01/30 02:32:31;;;;;;;46.63;24.37;;;;;;;;;;5026887;28;20227;-83
2023/01/30 02:35:00;;;;;;;47.37;24.67;;;;;;;;;;5027267;28;20199;-83
2023/01/30 02:37:32;;;;;;;47.00;24.40;;;;;;;;;;5027333;28;20200;-82
2023/01/30 02:40:09;;;;;;;46.00;24.40;;;;;;;;;;5026924;28;20228;-82
2023/01/30 02:42:39;;;;;;;45.87;23.90;;;;;;;;;;5026162;28;20202;-85
2023/01/30 02:45:11;;;;;;;40.87;22.80;;;;;;;;;;5025382;28;20199;-85
2023/01/30 02:47:41;;;;;;;44.80;24.53;;;;;;;;;;5026872;28;20227;-84
2023/01/30 02:50:09;;;;;;;44.03;23.23;;;;;;;;;;5027120;28;20208;-83
2023/01/30 02:52:37;;;;;;;48.13;25.33;;;;;;;;;;5027130;28;20216;-85
2023/01/30 02:55:07;;;;;;;49.37;25.03;;;;;;;;;;5027126;28;20202;-83
2023/01/30 02:57:35;;;;;;;52.77;26.83;;;;;;;;;;5021072;28;20200;-85
2023/01/30 03:00:03;;;;;;;48.93;25.23;;;;;;;;;;5025824;28;20204;-84
2023/01/30 03:02:46;;;;;;;47.53;24.67;;;;;;;;;;5007822;28;20199;-83
2023/01/30 03:05:26;;;;;;;42.10;24.13;;;;;;;;;;5024233;28;20226;-84
2023/01/30 03:08:00;;;;;;;52.67;25.70;;;;;;;;;;5028260;28;20299;-83
2023/01/30 03:10:33;;;;;;;51.60;25.23;;;;;;;;;;5027068;28;20197;-85
2023/01/30 03:13:06;;;;;;;47.03;24.73;;;;;;;;;;5027339;28;20223;-84
2023/01/30 03:15:34;;;;;;;52.67;26.03;;;;;;;;;;5027029;28;20207;-83
2023/01/30 03:18:03;;;;;;;46.70;24.73;;;;;;;;;;4986769;28;20196;-82
2023/01/30 03:20:33;;;;;;;53.50;23.57;;;;;;;;;;4987060;28;20201;-83
2023/01/30 03:23:00;;;;;;;41.87;23.13;;;;;;;;;;4987568;28;20201;-83
2023/01/30 03:25:28;;;;;;;49.57;24.40;;;;;;;;;;4986285;28;20200;-84
2023/01/30 03:27:56;;;;;;;44.30;23.57;;;;;;;;;;4985356;28;20209;-83
2023/01/30 03:30:24;;;;;;;46.70;23.50;;;;;;;;;;5014890;28;20225;-85
2023/01/30 03:32:52;;;;;;;47.67;24.20;;;;;;;;;;4971577;28;20225;-84
2023/01/30 03:35:19;;;;;;;52.53;25.27;;;;;;;;;;4985591;28;20193;-83
2023/01/30 03:37:48;;;;;;;46.37;24.23;;;;;;;;;;4987656;28;20194;-84
2023/01/30 03:40:17;;;;;;;41.50;22.67;;;;;;;;;;4983657;28;20200;-83
2023/01/30 03:42:44;;;;;;;42.43;23.03;;;;;;;;;;4987513;28;20203;-84
2023/01/30 03:45:12;;;;;;;38.80;20.47;;;;;;;;;;4987580;28;20284;-83
2023/01/30 03:47:39;;;;;;;43.87;22.33;;;;;;;;;;4986918;28;20193;-83
2023/01/30 03:50:07;;;;;;;43.93;22.00;;;;;;;;;;4980598;28;20196;-83
2023/01/30 03:52:35;;;;;;;48.47;23.10;;;;;;;;;;5000841;28;20216;-83
2023/01/30 03:55:04;;;;;;;40.07;21.20;;;;;;;;;;4987234;28;20236;-84
2023/01/30 03:57:31;;;;;;;40.47;21.03;;;;;;;;;;4987038;28;20255;-82
2023/01/30 03:59:59;;;;;;;42.70;22.07;;;;;;;;;;4986911;28;20201;-83
2023/01/30 04:02:26;;;;;;;41.63;20.87;;;;;;;;;;4986042;28;20208;-83
2023/01/30 04:04:54;;;;;;;42.77;21.77;;;;;;;;;;4984296;28;20276;-83
2023/01/30 04:07:21;;;;;;;46.53;22.53;;;;;;;;;;4986044;28;20241;-83
2023/01/30 04:09:48;;;;;;;38.13;20.63;;;;;;;;;;4986143;28;20198;-83
2023/01/30 04:12:17;;;;;;;39.57;20.77;;;;;;;;;;5019959;28;20235;-83
2023/01/30 04:14:44;;;;;;;43.00;21.30;;;;;;;;;;4987236;28;20291;-83
2023/01/30 04:17:12;;;;;;;41.33;20.43;;;;;;;;;;5011687;28;20259;-84
2023/01/30 04:19:39;;;;;;;37.10;19.43;;;;;;;;;;5025147;28;20204;-83
2023/01/30 04:22:07;;;;;;;43.20;21.03;;;;;;;;;;5020401;28;20196;-85
2023/01/30 04:24:34;;;;;;;38.57;20.00;;;;;;;;;;5022932;28;20282;-84
2023/01/30 04:27:02;;;;;;;40.97;20.50;;;;;;;;;;5026169;28;20275;-83
2023/01/30 04:29:30;;;;;;;34.90;18.83;;;;;;;;;;5023853;28;20200;-83
2023/01/30 04:31:58;;;;;;;41.63;21.07;;;;;;;;;;5009817;28;20210;-84
2023/01/30 04:34:25;;;;;;;32.80;18.77;;;;;;;;;;5024962;28;20302;-84
2023/01/30 04:36:52;;;;;;;36.50;19.50;;;;;;;;;;5008861;28;20203;-83
2023/01/30 04:39:20;;;;;;;41.53;19.40;;;;;;;;;;5025343;28;20208;-85
2023/01/30 04:41:47;;;;;;;37.47;18.73;;;;;;;;;;5025967;28;20192;-83
2023/01/30 04:44:14;;;;;;;33.27;17.50;;;;;;;;;;5024108;28;20206;-83
2023/01/30 04:46:43;;;;;;;34.97;18.43;;;;;;;;;;5028436;28;20208;-84
2023/01/30 04:49:11;;;;;;;33.40;18.30;;;;;;;;;;5039919;28;20207;-83
2023/01/30 04:51:38;;;;;;;38.77;19.87;;;;;;;;;;5023163;28;20204;-85
2023/01/30 04:54:06;;;;;;;31.53;18.10;;;;;;;;;;5024214;28;20212;-83
2023/01/30 04:56:33;;;;;;;37.73;19.33;;;;;;;;;;5029973;28;20204;-83
2023/01/30 04:59:00;;;;;;;48.53;19.53;;;;;;;;;;5029753;28;20295;-84
2023/01/30 05:01:31;;;;;;;34.10;18.17;;;;;;;;;;5026317;28;20202;-83
2023/01/30 05:04:00;;;;;;;34.83;18.50;;;;;;;;;;5029564;28;20204;-83
2023/01/30 05:06:27;;;;;;;31.50;17.17;;;;;;;;;;5023506;28;20196;-83
2023/01/30 05:08:56;;;;;;;35.80;18.70;;;;;;;;;;5026624;28;20206;-83
2023/01/30 05:11:23;;;;;;;29.77;17.13;;;;;;;;;;5024941;28;20286;-83
2023/01/30 05:13:51;;;;;;;30.90;17.10;;;;;;;;;;5028771;28;20299;-82
2023/01/30 05:16:18;;;;;;;33.23;18.20;;;;;;;;;;5028310;28;20228;-82
2023/01/30 05:18:46;;;;;;;36.47;19.47;;;;;;;;;;5029671;28;20196;-83
2023/01/30 05:21:15;;;;;;;32.67;17.47;;;;;;;;;;5028614;28;20200;-84
2023/01/30 05:23:43;;;;;;;34.70;18.40;;;;;;;;;;5028853;28;20220;-82
2023/01/30 05:26:10;;;;;;;32.23;17.90;;;;;;;;;;5028614;28;20287;-84
2023/01/30 05:28:38;;;;;;;34.57;17.77;;;;;;;;;;5028547;28;20299;-83
2023/01/30 05:31:06;;;;;;;29.00;16.43;;;;;;;;;;5027734;28;20196;-84
2023/01/30 05:33:33;;;;;;;30.00;16.50;;;;;;;;;;5027032;28;20246;-84
2023/01/30 05:36:00;;;;;;;35.20;17.30;;;;;;;;;;5024731;28;20231;-84
2023/01/30 05:38:29;;;;;;;31.03;16.37;;;;;;;;;;5023818;28;20196;-84
2023/01/30 05:41:00;;;;;;;30.30;16.60;;;;;;;;;;5028020;28;20204;-83
2023/01/30 05:43:27;;;;;;;31.47;15.93;;;;;;;;;;5026839;28;20200;-82
2023/01/30 05:45:55;;;;;;;31.43;15.77;;;;;;;;;;5024513;28;20204;-83
2023/01/30 05:48:22;;;;;;;23.10;13.97;;;;;;;;;;5028628;28;20204;-84
2023/01/30 05:50:51;;;;;;;30.40;16.03;;;;;;;;;;5026719;28;20223;-83
2023/01/30 05:53:18;;;;;;;26.80;15.37;;;;;;;;;;5024588;28;20227;-83
2023/01/30 05:55:46;;;;;;;28.90;14.87;;;;;;;;;;5026168;28;20184;-83
2023/01/30 05:58:14;;;;;;;29.17;14.57;;;;;;;;;;5027530;28;20201;-84
2023/01/30 06:00:41;;;;;;;25.00;13.77;;;;;;;;;;5030845;28;20196;-84
2023/01/30 06:03:08;;;;;;;24.83;14.17;;;;;;;;;;5029587;28;20207;-83
2023/01/30 06:05:38;;;;;;;24.20;14.23;;;;;;;;;;5024980;28;20263;-84
2023/01/30 06:08:06;;;;;;;24.47;13.73;;;;;;;;;;5025379;28;20196;-84
2023/01/30 06:10:34;;;;;;;24.07;13.63;;;;;;;;;;5025493;28;20212;-84
2023/01/30 06:13:02;;;;;;;24.13;12.90;;;;;;;;;;5024310;28;20231;-84
2023/01/30 06:15:29;;;;;;;19.87;11.67;;;;;;;;;;5017234;28;20196;-83
2023/01/30 06:17:57;;;;;;;21.07;12.43;;;;;;;;;;5027123;28;20251;-83
2023/01/30 06:20:24;;;;;;;22.90;12.77;;;;;;;;;;5027110;28;20203;-84
2023/01/30 06:22:51;;;;;;;20.67;12.23;;;;;;;;;;5025628;28;20283;-86
2023/01/30 06:25:21;;;;;;;20.00;12.03;;;;;;;;;;5029977;28;20211;-84
2023/01/30 06:27:49;;;;;;;22.03;12.67;;;;;;;;;;5022783;28;20212;-83
2023/01/30 06:30:18;;;;;;;26.07;13.80;;;;;;;;;;5022759;28;20283;-83
2023/01/30 06:32:45;;;;;;;24.13;13.10;;;;;;;;;;5024212;28;20206;-83
2023/01/30 06:35:12;;;;;;;31.30;14.33;;;;;;;;;;5021907;28;20521;-84
2023/01/30 06:37:39;;;;;;;28.50;13.47;;;;;;;;;;5016134;28;20271;-84
2023/01/30 06:40:07;;;;;;;28.30;13.93;;;;;;;;;;5017390;28;20280;-83
2023/01/30 06:42:34;;;;;;;29.73;13.97;;;;;;;;;;5021990;28;20204;-84
2023/01/30 06:45:02;;;;;;;28.60;14.20;;;;;;;;;;5018642;28;20200;-85
2023/01/30 06:47:30;;;;;;;31.67;14.47;;;;;;;;;;5017848;28;20235;-84
2023/01/30 06:49:58;;;;;;;37.50;14.03;;;;;;;;;;5018649;28;20208;-83
2023/01/30 06:52:25;;;;;;;29.63;14.37;;;;;;;;;;5024876;28;20216;-83
2023/01/30 06:54:52;;;;;;;34.17;15.57;;;;;;;;;;5019509;28;20208;-86
2023/01/30 06:57:19;;;;;;;30.40;15.23;;;;;;;;;;5016593;28;20197;-84
2023/01/30 06:59:47;;;;;;;29.60;13.73;;;;;;;;;;5017387;28;20304;-84
2023/01/30 07:02:14;;;;;;;27.10;13.67;;;;;;;;;;5018894;28;20222;-84
2023/01/30 07:04:43;;;;;;;36.07;14.90;;;;;;;;;;5012817;28;20299;-85
2023/01/30 07:07:10;;;;;;;30.43;14.17;;;;;;;;;;5017650;28;20270;-84
2023/01/30 07:09:37;;;;;;;23.40;13.40;;;;;;;;;;5011494;28;20200;-84
2023/01/30 07:12:05;;;;;;;23.80;12.60;;;;;;;;;;5012993;28;20307;-84
2023/01/30 07:14:32;;;;;;;23.27;12.30;;;;;;;;;;5016777;28;20223;-85
2023/01/30 07:16:59;;;;;;;19.43;10.97;;;;;;;;;;5018413;28;20236;-84
2023/01/30 07:19:28;;;;;;;20.37;11.67;;;;;;;;;;5016538;28;20223;-85
2023/01/30 07:21:57;;;;;;;18.27;11.50;;;;;;;;;;5015457;28;20206;-85
2023/01/30 07:24:24;;;;;;;22.70;12.70;;;;;;;;;;5029641;28;20216;-84
2023/01/30 07:26:51;;;;;;;18.90;11.97;;;;;;;;;;5026177;28;20196;-84
2023/01/30 07:29:18;;;;;;;20.93;12.80;;;;;;;;;;5018573;28;20208;-86
2023/01/30 07:31:45;;;;;;;20.33;12.07;;;;;;;;;;5013027;28;20204;-86
2023/01/30 07:34:13;;;;;;;22.87;12.60;;;;;;;;;;5016740;28;20223;-85
2023/01/30 07:36:40;;;;;;;24.47;12.80;;;;;;;;;;5016832;28;20276;-85
2023/01/30 07:39:09;;;;;;;23.83;13.03;;;;;;;;;;5016205;28;20200;-85
2023/01/30 07:41:36;;;;;;;27.20;13.37;;;;;;;;;;5018162;28;20204;-87
2023/01/30 07:44:03;;;;;;;23.57;12.30;;;;;;;;;;5015684;28;20208;-85
2023/01/30 07:46:33;;;;;;;26.93;13.33;;;;;;;;;;5015715;28;20364;-85
2023/01/30 07:49:01;;;;;;;23.33;12.67;;;;;;;;;;5017198;28;20292;-86
2023/01/30 07:51:28;;;;;;;31.20;13.80;;;;;;;;;;5018070;28;20207;-85
2023/01/30 07:53:55;;;;;;;24.00;13.27;;;;;;;;;;5016265;28;20311;-84
2023/01/30 07:56:24;;;;;;;27.77;14.13;;;;;;;;;;5015517;28;20285;-85
2023/01/30 07:58:51;;;;;;;22.20;13.60;;;;;;;;;;5017761;28;20192;-84
2023/01/30 08:01:19;;;;;;;23.43;12.97;;;;;;;;;;5016710;28;20204;-85
2023/01/30 08:03:48;;;;;;;25.07;12.60;;;;;;;;;;5016740;28;20216;-85
2023/01/30 08:06:15;;;;;;;22.10;13.20;;;;;;;;;;5015092;28;20231;-85
2023/01/30 08:08:42;;;;;;;20.50;11.37;;;;;;;;;;5013890;28;20279;-85
2023/01/30 08:11:10;;;;;;;18.93;11.73;;;;;;;;;;5017496;28;20203;-85
2023/01/30 08:13:39;;;;;;;21.63;11.70;;;;;;;;;;5016375;28;20211;-85
2023/01/30 08:16:07;;;;;;;23.80;12.37;;;;;;;;;;5013120;28;20234;-84
2023/01/30 08:18:35;;;;;;;19.23;11.63;;;;;;;;;;5012674;28;20232;-85
2023/01/30 08:21:04;;;;;;;20.27;11.90;;;;;;;;;;5016673;28;20202;-85
2023/01/30 08:23:32;;;;;;;22.70;12.03;;;;;;;;;;5017342;28;20213;-85
2023/01/30 08:26:00;;;;;;;22.97;12.23;;;;;;;;;;5012906;28;20227;-85
2023/01/30 08:28:27;;;;;;;18.87;11.47;;;;;;;;;;5014329;28;20200;-86
2023/01/30 08:30:56;;;;;;;19.77;11.40;;;;;;;;;;5013760;28;20204;-85
2023/01/30 08:33:24;;;;;;;18.80;11.07;;;;;;;;;;5015276;28;20201;-85
2023/01/30 08:35:52;;;;;;;20.73;11.60;;;;;;;;;;5020301;28;20287;-85
2023/01/30 08:38:19;;;;;;;17.40;10.50;;;;;;;;;;5017580;28;20287;-86
2023/01/30 08:40:46;;;;;;;18.37;10.93;;;;;;;;;;5007456;28;20252;-84
2023/01/30 08:43:13;;;;;;;17.40;10.03;;;;;;;;;;5014935;28;20227;-84
2023/01/30 08:45:41;;;;;;;17.93;10.73;;;;;;;;;;5012184;28;20263;-85
2023/01/30 08:48:10;;;;;;;16.37;9.90;;;;;;;;;;5012336;28;20207;-84
2023/01/30 08:50:38;;;;;;;13.27;9.40;;;;;;;;;;5013850;28;20196;-84
2023/01/30 08:53:06;;;;;;;17.27;10.20;;;;;;;;;;5013519;28;20196;-84
2023/01/30 08:55:33;;;;;;;14.30;10.43;;;;;;;;;;5011646;28;20246;-85
2023/01/30 08:58:00;;;;;;;13.97;9.33;;;;;;;;;;5017714;28;20441;-84
2023/01/30 09:00:28;;;;;;;14.43;9.50;;;;;;;;;;5011323;28;20212;-84
2023/01/30 09:02:55;;;;;;;15.80;8.97;;;;;;;;;;5018440;28;20200;-84
2023/01/30 09:05:24;;;;;;;17.03;9.00;;;;;;;;;;5015546;28;20200;-84
2023/01/30 09:07:51;;;;;;;12.43;8.77;;;;;;;;;;5015892;28;20300;-84
2023/01/30 09:10:19;;;;;;;13.33;9.17;;;;;;;;;;5015054;28;20238;-84
2023/01/30 09:12:46;;;;;;;13.13;8.70;;;;;;;;;;5014966;28;20295;-84
2023/01/30 09:15:13;;;;;;;13.90;9.47;;;;;;;;;;5013354;28;20220;-84
2023/01/30 09:17:41;;;;;;;14.90;8.87;;;;;;;;;;5012849;28;20224;-85
2023/01/30 09:20:09;;;;;;;12.27;8.07;;;;;;;;;;5017764;28;20287;-84
2023/01/30 09:22:37;;;;;;;11.10;7.63;;;;;;;;;;5017262;28;20196;-83
2023/01/30 09:25:05;;;;;;;12.43;8.57;;;;;;;;;;5019343;28;20303;-84
2023/01/30 09:27:32;;;;;;;12.27;8.13;;;;;;;;;;5021767;28;20291;-84
2023/01/30 09:29:59;;;;;;;9.83;7.50;;;;;;;;;;5022888;28;20196;-84
2023/01/30 09:32:26;;;;;;;12.57;8.27;;;;;;;;;;5023794;28;20284;-84
2023/01/30 09:34:54;;;;;;;13.60;9.20;;;;;;;;;;5027043;28;20230;-84
2023/01/30 09:37:21;;;;;;;10.50;7.80;;;;;;;;;;5029331;28;20228;-84
2023/01/30 09:39:49;;;;;;;13.17;8.50;;;;;;;;;;5019191;28;20291;-84
2023/01/30 09:42:31;;;;;;;13.03;9.13;;;;;;;;;;5020309;28;20214;-84
2023/01/30 09:45:04;;;;;;;13.37;9.03;;;;;;;;;;5026072;28;20287;-84
2023/01/30 09:47:37;;;;;;;13.37;8.90;;;;;;;;;;5014734;28;20199;-84
2023/01/30 09:50:08;;;;;;;12.50;8.97;;;;;;;;;;5027964;28;20203;-84
2023/01/30 09:52:39;;;;;;;11.90;8.13;;;;;;;;;;5026973;28;20187;-84
2023/01/30 09:55:16;;;;;;;8.60;7.03;;;;;;;;;;5020096;28;20307;-84
2023/01/30 09:57:44;;;;;;;9.97;7.40;;;;;;;;;;5017263;28;20208;-84
2023/01/30 10:00:14;;;;;;;7.97;6.70;;;;;;;;;;5021441;28;20287;-84
2023/01/30 10:02:45;;;;;;;10.50;6.93;;;;;;;;;;5017859;28;20299;-85
2023/01/30 10:05:12;;;;;;;6.13;5.10;;;;;;;;;;5015480;28;20208;-85
2023/01/30 10:07:46;;;;;;;5.83;4.67;;;;;;;;;;5018062;28;20196;-85
2023/01/30 10:10:18;;;;;;;5.10;4.57;;;;;;;;;;5017798;28;20210;-85
2023/01/30 10:12:49;;;;;;;7.07;5.27;;;;;;;;;;5014843;28;20211;-86
2023/01/30 10:15:24;;;;;;;4.80;4.10;;;;;;;;;;5018311;28;20247;-85
2023/01/30 10:17:58;;;;;;;4.80;4.27;;;;;;;;;;5019827;28;20238;-85
2023/01/30 10:20:32;;;;;;;4.63;4.13;;;;;;;;;;5020281;28;20214;-85
2023/01/30 10:23:08;;;;;;;4.33;3.93;;;;;;;;;;5019561;28;20200;-85
2023/01/30 10:25:41;;;;;;;5.00;4.43;;;;;;;;;;5017606;28;20276;-85
2023/01/30 10:28:12;;;;;;;4.53;3.90;;;;;;;;;;5020771;28;20196;-86
2023/01/30 10:30:40;;;;;;;4.07;3.57;;;;;;;;;;5019748;28;20208;-85
2023/01/30 10:33:10;;;;;;;3.90;3.37;;;;;;;;;;5018453;28;20196;-85
2023/01/30 10:35:39;;;;;;;3.60;3.30;;;;;;;;;;5014299;28;20216;-85
2023/01/30 10:38:11;;;;;;;3.97;3.13;;;;;;;;;;5017395;28;20192;-85
2023/01/30 10:40:41;;;;;;;3.47;3.13;;;;;;;;;;5018774;28;20232;-85
2023/01/30 10:43:14;;;;;;;4.37;3.97;;;;;;;;;;5016876;28;20191;-85
2023/01/30 10:45:44;;;;;;;3.70;3.40;;;;;;;;;;5020837;28;20215;-85
2023/01/30 10:48:26;;;;;;;3.20;2.90;;;;;;;;;;5018927;28;20207;-86
2023/01/30 10:50:55;;;;;;;2.93;2.63;;;;;;;;;;5015473;28;20288;-86
2023/01/30 10:53:27;;;;;;;4.70;2.60;;;;;;;;;;5011976;28;20278;-85
2023/01/30 10:56:00;;;;;;;2.63;2.33;;;;;;;;;;5016154;28;20307;-85
2023/01/30 10:58:30;;;;;;;2.90;2.50;;;;;;;;;;5018506;28;20192;-85
2023/01/30 11:01:00;;;;;;;2.80;2.60;;;;;;;;;;5015682;28;20185;-84
2023/01/30 11:03:31;;;;;;;3.00;2.70;;;;;;;;;;5026495;28;20279;-85
2023/01/30 11:06:00;;;;;;;4.83;2.40;;;;;;;;;;5021975;28;20204;-85
2023/01/30 11:08:28;;;;;;;2.20;2.10;;;;;;;;;;5017500;28;20266;-85
2023/01/30 11:10:58;;;;;;;2.60;2.40;;;;;;;;;;5022299;28;20212;-85
2023/01/30 11:13:29;;;;;;;2.43;2.23;;;;;;;;;;5015633;28;20216;-84
2023/01/30 11:15:58;;;;;;;2.13;1.97;;;;;;;;;;5024477;28;20215;-84
2023/01/30 11:18:25;;;;;;;3.00;2.20;;;;;;;;;;5017048;28;20200;-85
2023/01/30 11:21:00;;;;;;;2.57;2.37;;;;;;;;;;5015597;28;20196;-85
2023/01/30 11:23:31;;;;;;;2.90;2.67;;;;;;;;;;5017894;28;20233;-85
2023/01/30 11:26:01;;;;;;;2.87;2.40;;;;;;;;;;5013149;28;20215;-85
2023/01/30 11:28:34;;;;;;;4.03;2.73;;;;;;;;;;5012786;28;20234;-85
2023/01/30 11:31:02;;;;;;;2.90;2.60;;;;;;;;;;5015657;28;20196;-85
2023/01/30 11:33:33;;;;;;;3.77;2.70;;;;;;;;;;5009804;28;20212;-86
2023/01/30 11:36:01;;;;;;;3.40;2.80;;;;;;;;;;5013618;28;20235;-85
2023/01/30 11:38:29;;;;;;;2.83;2.60;;;;;;;;;;5015305;28;20300;-86
2023/01/30 11:41:05;;;;;;;3.70;3.00;;;;;;;;;;5011088;28;20319;-85
2023/01/30 11:43:33;;;;;;;3.97;2.47;;;;;;;;;;5010521;28;20210;-85
2023/01/30 11:46:01;;;;;;;3.60;3.30;;;;;;;;;;5013715;28;20278;-85
2023/01/30 11:48:29;;;;;;;3.20;2.90;;;;;;;;;;5012611;28;20215;-86
2023/01/30 11:51:00;;;;;;;3.57;3.00;;;;;;;;;;5016629;28;20196;-86
2023/01/30 11:53:30;;;;;;;2.70;2.50;;;;;;;;;;5019339;28;20215;-84
2023/01/30 11:55:59;;;;;;;2.77;2.57;;;;;;;;;;5013182;28;20224;-86
2023/01/30 11:58:31;;;;;;;2.50;2.27;;;;;;;;;;5017247;28;20271;-87
2023/01/30 12:00:59;;;;;;;2.50;2.30;;;;;;;;;;5017940;28;20254;-84
2023/01/30 12:03:28;;;;;;;2.97;2.40;;;;;;;;;;5019090;28;20192;-85
2023/01/30 12:05:56;;;;;;;3.00;2.40;;;;;;;;;;5025864;28;20219;-85
2023/01/30 12:08:25;;;;;;;2.63;2.43;;;;;;;;;;5026767;28;20207;-86
2023/01/30 12:10:54;;;;;;;2.50;2.30;;;;;;;;;;5017008;28;20227;-86
2023/01/30 12:13:24;;;;;;;3.17;2.40;;;;;;;;;;5020586;28;20208;-86
2023/01/30 12:15:56;;;;;;;1.90;1.80;;;;;;;;;;5019794;28;20282;-85
2023/01/30 12:18:26;;;;;;;2.43;2.20;;;;;;;;;;5021655;28;20319;-84
2023/01/30 12:20:58;;;;;;;2.20;2.00;;;;;;;;;;5024369;28;20199;-83
2023/01/30 12:23:32;;;;;;;4.87;2.13;;;;;;;;;;5018214;28;20234;-84
2023/01/30 12:26:00;;;;;;;2.60;2.40;;;;;;;;;;5021263;28;20212;-84
2023/01/30 12:28:33;;;;;;;2.40;2.20;;;;;;;;;;5018832;28;20201;-85
2023/01/30 12:31:05;;;;;;;3.03;2.13;;;;;;;;;;5026568;28;20278;-84
2023/01/30 12:33:35;;;;;;;2.40;2.17;;;;;;;;;;5026048;28;20211;-84
2023/01/30 12:36:07;;;;;;;3.70;2.20;;;;;;;;;;5018233;28;20246;-85
2023/01/30 12:38:42;;;;;;;3.00;2.23;;;;;;;;;;5021861;28;20189;-85
2023/01/30 12:41:17;;;;;;;3.13;2.20;;;;;;;;;;5015895;28;20213;-86
2023/01/30 12:43:53;;;;;;;3.23;2.43;;;;;;;;;;5016692;28;20212;-84
2023/01/30 12:46:35;;;;;;;4.40;2.30;;;;;;;;;;5013338;28;20199;-83
2023/01/30 12:49:20;;;;;;;3.50;3.20;;;;;;;;;;5008305;28;20196;-85
2023/01/30 12:51:56;;;;;;;3.23;2.57;;;;;;;;;;5012835;28;20203;-85
2023/01/30 12:54:29;;;;;;;5.50;2.67;;;;;;;;;;5010012;28;20206;-84
2023/01/30 12:57:00;;;;;;;6.03;2.80;;;;;;;;;;5012775;28;20220;-83
2023/01/30 12:59:33;;;;;;;2.50;2.30;;;;;;;;;;5017089;28;20207;-83
2023/01/30 13:02:16;;;;;;;5.80;2.60;;;;;;;;;;5012290;28;20216;-83
2023/01/30 13:04:48;;;;;;;4.60;2.63;;;;;;;;;;5016415;28;20227;-83
2023/01/30 13:07:18;;;;;;;4.40;2.33;;;;;;;;;;5016382;28;20293;-83
2023/01/30 13:09:52;;;;;;;9.07;2.83;;;;;;;;;;5016785;28;20212;-82
2023/01/30 13:12:24;;;;;;;8.40;5.23;;;;;;;;;;5018189;28;20290;-83
2023/01/30 13:14:55;;;;;;;7.80;4.83;;;;;;;;;;5021106;28;20204;-83
2023/01/30 13:17:32;;;;;;;4.63;3.40;;;;;;;;;;5019196;28;20234;-83
2023/01/30 13:20:04;;;;;;;4.53;2.47;;;;;;;;;;5020202;28;20341;-83
2023/01/30 13:22:34;;;;;;;3.33;2.67;;;;;;;;;;5024145;28;20280;-83
2023/01/30 13:25:04;;;;;;;4.00;2.97;;;;;;;;;;5017558;28;20219;-83
2023/01/30 13:27:35;;;;;;;3.93;2.70;;;;;;;;;;5019791;28;20235;-83
2023/01/30 13:30:05;;;;;;;5.00;2.60;;;;;;;;;;5020383;28;20258;-82
2023/01/30 13:32:36;;;;;;;6.57;2.93;;;;;;;;;;5022389;28;20207;-84
2023/01/30 13:35:05;;;;;;;5.33;2.90;;;;;;;;;;5009241;28;20228;-83
2023/01/30 13:37:32;;;;;;;5.70;3.00;;;;;;;;;;5022812;28;20216;-84
2023/01/30 13:40:01;;;;;;;4.00;2.80;;;;;;;;;;5016798;28;20266;-84
2023/01/30 13:42:38;;;;;;;5.33;2.77;;;;;;;;;;5016967;28;20192;-83
2023/01/30 13:45:08;;;;;;;4.47;2.87;;;;;;;;;;5019918;28;20204;-83
2023/01/30 13:47:43;;;;;;;4.20;2.60;;;;;;;;;;5023960;28;20232;-84
2023/01/30 13:50:27;;;;;;;3.90;2.23;;;;;;;;;;5023693;28;20192;-83
2023/01/30 13:52:57;;;;;;;5.43;2.73;;;;;;;;;;5012357;28;20214;-84
2023/01/30 13:55:29;;;;;;;3.40;2.30;;;;;;;;;;5014991;28;20219;-83
2023/01/30 13:58:00;;;;;;;5.47;2.23;;;;;;;;;;5013039;28;20199;-84
2023/01/30 14:00:31;;;;;;;4.57;2.30;;;;;;;;;;5016946;28;20228;-83
2023/01/30 14:03:17;;;;;;;3.63;2.30;;;;;;;;;;5013676;28;20239;-83
2023/01/30 14:06:06;;;;;;;6.43;2.60;;;;;;;;;;5015696;28;20210;-83
2023/01/30 14:08:36;;;;;;;6.63;2.50;;;;;;;;;;5009128;28;20285;-83
2023/01/30 14:11:03;;;;;;;3.37;2.17;;;;;;;;;;5012060;28;20215;-83
2023/01/30 14:13:30;;;;;;;4.67;2.00;;;;;;;;;;5014486;28;20303;-83
2023/01/30 14:16:00;;;;;;;5.20;2.10;;;;;;;;;;5015848;28;20228;-83
2023/01/30 14:18:29;;;;;;;4.27;2.10;;;;;;;;;;5014719;28;20208;-83
2023/01/30 14:21:13;;;;;;;6.77;2.30;;;;;;;;;;5017845;28;20287;-83
2023/01/30 14:23:40;;;;;;;5.13;2.30;;;;;;;;;;5017722;28;20259;-83
2023/01/30 14:26:08;;;;;;;6.17;2.80;;;;;;;;;;5012299;28;20204;-83
2023/01/30 14:28:45;;;;;;;6.17;2.27;;;;;;;;;;5013804;28;20208;-84
2023/01/30 14:31:13;;;;;;;5.73;1.90;;;;;;;;;;5018063;28;20284;-84
2023/01/30 14:33:50;;;;;;;7.53;2.10;;;;;;;;;;5011891;28;20224;-84
2023/01/30 14:36:37;;;;;;;5.53;3.00;;;;;;;;;;5022119;28;20283;-83
2023/01/30 14:39:23;;;;;;;8.60;5.33;;;;;;;;;;5018182;28;20210;-83
2023/01/30 14:42:06;;;;;;;8.53;2.77;;;;;;;;;;5010044;28;20196;-84
2023/01/30 14:44:52;;;;;;;6.20;2.30;;;;;;;;;;5014618;28;20203;-83